Time;durP1;ratioP1;P1;durP2;ratioP2;P2;SDS_P1;SDS_P2;PMS_P1;PMS_P2;Temp;Humidity;BMP_temperature;BMP_pressure;BME280_temperature;BME280_humidity;BME280_pressure;Samples;Min_cycle;Max_cycle;Signal;HPM_P1;HPM_P2
2022/07/20 00:00:04;;;;;;;;;20.67;19.33;;;;;29.07;45.28;99173.75;5033555;28;45435;-51
2022/07/20 00:02:29;;;;;;;;;19.67;18.67;;;;;29.07;45.35;99164.78;5033698;28;45499;-50
2022/07/20 00:04:55;;;;;;;;;24.67;23.33;;;;;29.06;45.31;99177.50;5046933;28;45403;-51
2022/07/20 00:07:20;;;;;;;;;25.00;23.67;;;;;29.03;45.00;99177.84;5041777;28;45483;-51
2022/07/20 00:12:30;;;;;;;;;23.67;23.33;;;;;28.98;45.51;99177.56;5050446;28;45348;-52
2022/07/20 00:14:55;;;;;;;;;23.33;23.00;;;;;28.95;45.76;99186.06;5047435;28;45353;-53
2022/07/20 00:17:21;;;;;;;;;24.00;24.00;;;;;28.94;45.64;99186.22;5047119;28;45522;-51
2022/07/20 00:19:46;;;;;;;;;25.33;25.00;;;;;28.92;45.77;99188.25;5038092;28;46319;-52
2022/07/20 00:22:11;;;;;;;;;24.33;23.67;;;;;28.88;45.44;99185.06;5046306;28;45507;-49
2022/07/20 00:24:37;;;;;;;;;23.00;23.00;;;;;28.86;46.21;99187.09;5039005;28;45263;-50
2022/07/20 00:27:03;;;;;;;;;26.00;26.00;;;;;28.83;46.07;99185.56;5037387;28;45623;-52
2022/07/20 00:29:28;;;;;;;;;23.67;22.00;;;;;28.82;45.95;99183.88;5050534;28;45406;-50
2022/07/20 00:31:54;;;;;;;;;23.33;23.33;;;;;28.80;45.73;99183.25;5043651;28;45575;-53
2022/07/20 00:34:20;;;;;;;;;22.00;21.67;;;;;28.79;45.97;99186.97;5050818;28;45427;-48
2022/07/20 00:36:47;;;;;;;;;29.33;27.33;;;;;28.77;45.94;99185.41;5043431;28;45527;-50
2022/07/20 00:39:12;;;;;;;;;25.33;23.33;;;;;28.74;46.51;99183.91;5035627;28;46061;-51
2022/07/20 00:41:38;;;;;;;;;22.00;21.67;;;;;28.72;45.96;99188.66;5039884;28;45558;-49
2022/07/20 00:44:06;;;;;;;;;23.67;23.33;;;;;28.68;45.85;99187.31;5054394;28;45710;-51
2022/07/20 00:46:36;;;;;;;;;23.33;23.33;;;;;28.66;46.01;99189.34;5055511;28;45492;-50
2022/07/20 00:49:03;;;;;;;;;23.67;23.00;;;;;28.62;46.47;99190.72;5046972;28;45428;-50
2022/07/20 00:51:29;;;;;;;;;25.33;25.33;;;;;28.61;46.20;99186.31;5047080;28;45452;-51
2022/07/20 00:53:55;;;;;;;;;25.67;25.00;;;;;28.60;46.72;99189.22;5048055;28;45522;-52
2022/07/20 00:56:22;;;;;;;;;24.00;23.33;;;;;28.59;46.62;99193.78;5049788;28;45329;-49
2022/07/20 00:58:48;;;;;;;;;26.00;24.33;;;;;28.60;46.35;99191.94;5049726;28;46061;-48
2022/07/20 01:01:14;;;;;;;;;25.67;22.67;;;;;28.61;46.39;99197.19;5047718;28;45464;-48
2022/07/20 01:03:40;;;;;;;;;29.00;28.67;;;;;28.62;46.56;99198.03;5064609;28;45499;-47
2022/07/20 01:06:07;;;;;;;;;22.00;20.67;;;;;28.61;46.31;99194.47;5046690;28;45370;-48
2022/07/20 01:08:32;;;;;;;;;22.67;22.67;;;;;28.60;46.60;99197.34;5052674;28;46127;-51
2022/07/20 01:10:58;;;;;;;;;24.33;23.67;;;;;28.58;46.58;99207.53;5053848;28;45447;-51
2022/07/20 01:13:25;;;;;;;;;22.67;22.33;;;;;28.55;46.59;99203.28;5047692;28;45389;-52
2022/07/20 01:15:51;;;;;;;;;27.33;26.33;;;;;28.56;47.08;99209.56;5056388;28;45588;-51
2022/07/20 01:18:17;;;;;;;;;22.67;22.33;;;;;28.55;46.51;99210.59;5056062;28;46158;-51
2022/07/20 01:20:48;;;;;;;;;25.67;25.00;;;;;28.52;47.01;99206.34;5052693;28;45348;-51
2022/07/20 01:23:18;;;;;;;;;22.67;22.00;;;;;28.49;46.57;99212.09;5037970;28;45536;-50
2022/07/20 01:25:44;;;;;;;;;27.00;26.00;;;;;28.45;46.57;99200.78;5043121;28;45456;-52
2022/07/20 01:28:11;;;;;;;;;23.00;23.00;;;;;28.43;46.80;99201.97;5049265;28;45351;-49
2022/07/20 01:30:38;;;;;;;;;21.33;21.33;;;;;28.41;46.92;99201.28;5036912;28;45505;-52
2022/07/20 01:33:03;;;;;;;;;28.00;28.00;;;;;28.41;47.02;99213.00;5036066;28;45490;-47
2022/07/20 01:35:29;;;;;;;;;22.33;22.33;;;;;28.38;47.05;99215.19;5045655;28;45498;-51
2022/07/20 01:37:54;;;;;;;;;23.67;23.67;;;;;28.35;47.11;99221.81;5048123;28;45428;-50
2022/07/20 01:40:19;;;;;;;;;20.67;19.67;;;;;28.31;47.19;99217.78;5051530;28;45384;-51
2022/07/20 01:42:45;;;;;;;;;29.00;24.33;;;;;28.29;47.43;99214.38;5046019;28;45464;-51
2022/07/20 01:45:10;;;;;;;;;20.00;19.33;;;;;28.27;47.68;99215.56;5051184;28;45514;-51
2022/07/20 01:47:36;;;;;;;;;26.00;23.00;;;;;28.24;47.92;99216.75;5056436;28;45429;-48
2022/07/20 01:50:01;;;;;;;;;22.67;21.67;;;;;28.22;47.30;99226.06;5038322;28;45352;-50
2022/07/20 01:52:27;;;;;;;;;24.33;23.67;;;;;28.21;47.74;99230.66;5055819;28;45393;-48
2022/07/20 01:54:52;;;;;;;;;26.33;26.33;;;;;28.18;47.77;99222.81;5071074;28;45387;-49
2022/07/20 01:57:18;;;;;;;;;26.00;26.00;;;;;28.15;47.88;99225.91;5051724;28;45483;-52
2022/07/20 01:59:45;;;;;;;;;24.33;23.67;;;;;28.11;47.93;99229.97;5052315;28;45488;-51
2022/07/20 02:02:10;;;;;;;;;28.00;25.00;;;;;28.06;48.06;99226.91;5053660;28;45214;-49
2022/07/20 02:04:35;;;;;;;;;26.33;24.67;;;;;28.04;48.52;99229.78;5055890;28;45522;-52
2022/07/20 02:07:01;;;;;;;;;24.33;23.33;;;;;28.01;47.84;99232.81;5049579;28;46092;-51
2022/07/20 02:09:26;;;;;;;;;24.67;24.67;;;;;28.00;48.19;99238.41;5055049;28;45610;-50
2022/07/20 02:11:52;;;;;;;;;26.67;26.67;;;;;27.96;48.35;99226.25;5049232;28;45530;-48
2022/07/20 02:14:17;;;;;;;;;29.00;26.00;;;;;27.95;48.33;99232.69;5042919;28;45493;-50
2022/07/20 02:16:43;;;;;;;;;28.00;27.33;;;;;27.92;48.17;99225.72;5049870;28;45991;-51
2022/07/20 02:19:09;;;;;;;;;31.00;27.67;;;;;27.90;49.01;99226.91;5055726;28;45602;-49
2022/07/20 02:21:35;;;;;;;;;28.00;25.67;;;;;27.84;48.61;99228.41;5042481;28;45546;-53
2022/07/20 02:24:00;;;;;;;;;29.00;28.33;;;;;27.79;48.52;99228.94;5039206;28;45395;-52
2022/07/20 02:26:26;;;;;;;;;26.00;26.00;;;;;27.72;48.82;99230.63;5044897;28;45437;-52
2022/07/20 02:28:52;;;;;;;;;25.67;25.67;;;;;27.69;49.29;99227.41;5030917;28;45401;-52
2022/07/20 02:31:18;;;;;;;;;26.67;26.67;;;;;27.67;49.45;99221.28;5053899;28;45409;-50
2022/07/20 02:33:46;;;;;;;;;27.00;27.00;;;;;27.65;49.33;99220.66;5044122;28;45911;-51
2022/07/20 02:36:11;;;;;;;;;25.33;25.00;;;;;27.61;49.25;99216.56;5043805;28;46391;-51
2022/07/20 02:38:38;;;;;;;;;26.33;25.33;;;;;27.57;49.62;99221.47;5043906;28;45490;-52
2022/07/20 02:41:03;;;;;;;;;23.67;21.67;;;;;27.54;49.25;99223.63;5046311;28;45432;-52
2022/07/20 02:43:29;;;;;;;;;31.67;30.00;;;;;27.52;49.34;99233.78;5049336;28;45523;-51
2022/07/20 02:45:54;;;;;;;;;28.67;27.33;;;;;27.49;49.95;99236.81;5054935;28;45444;-49
2022/07/20 02:48:20;;;;;;;;;27.00;26.67;;;;;27.44;49.90;99240.88;5035970;28;45452;-53
2022/07/20 02:50:45;;;;;;;;;26.33;26.33;;;;;27.36;50.76;99240.84;5042805;28;45486;-51
2022/07/20 02:53:12;;;;;;;;;26.00;25.67;;;;;27.27;50.72;99239.16;5042086;28;45375;-48
2022/07/20 02:55:39;;;;;;;;;28.33;25.33;;;;;27.21;50.79;99234.38;5054693;28;45476;-52
2022/07/20 02:58:04;;;;;;;;;26.67;26.00;;;;;27.18;50.24;99244.69;5047259;28;45451;-49
2022/07/20 03:00:30;;;;;;;;;26.00;26.00;;;;;27.14;50.01;99238.78;5044850;28;45380;-53
2022/07/20 03:02:56;;;;;;;;;24.33;23.00;;;;;27.14;50.38;99232.50;5041807;28;45467;-50
2022/07/20 03:05:21;;;;;;;;;28.00;27.00;;;;;27.13;50.83;99234.38;5053018;28;46287;-51
2022/07/20 03:07:47;;;;;;;;;28.33;27.33;;;;;27.15;51.23;99235.03;5043240;28;45448;-52
2022/07/20 03:10:13;;;;;;;;;27.33;25.33;;;;;27.17;50.45;99237.56;5051362;28;45575;-49
2022/07/20 03:12:38;;;;;;;;;30.67;26.33;;;;;27.17;50.61;99245.69;5054044;28;45404;-47
2022/07/20 03:15:06;;;;;;;;;29.00;27.33;;;;;27.18;50.83;99250.09;5054596;28;45493;-52
2022/07/20 03:17:31;;;;;;;;;31.33;30.00;;;;;27.17;50.91;99257.38;5052869;28;45355;-49
2022/07/20 03:19:56;;;;;;;;;28.00;28.00;;;;;27.18;51.13;99259.06;5045138;28;45409;-48
2022/07/20 03:22:22;;;;;;;;;30.67;28.00;;;;;27.19;50.88;99257.22;5053858;28;45597;-50
2022/07/20 03:24:47;;;;;;;;;25.67;25.67;;;;;27.19;50.74;99258.06;5053808;28;45258;-47
2022/07/20 03:27:14;;;;;;;;;27.67;26.33;;;;;27.20;50.88;99256.19;5054670;28;45341;-47
2022/07/20 03:29:40;;;;;;;;;27.00;25.00;;;;;27.18;50.77;99260.94;5047410;28;45461;-50
2022/07/20 03:32:05;;;;;;;;;29.67;26.67;;;;;27.18;50.90;99256.34;5034106;28;45455;-52
2022/07/20 03:34:31;;;;;;;;;25.33;25.33;;;;;27.17;50.95;99256.53;5039953;28;46044;-49
2022/07/20 03:36:56;;;;;;;;;27.67;27.67;;;;;27.18;50.60;99267.19;5044549;28;45523;-48
2022/07/20 03:39:22;;;;;;;;;26.00;26.00;;;;;27.18;50.79;99269.91;5045557;28;45477;-50
2022/07/20 03:41:47;;;;;;;;;30.67;29.67;;;;;27.20;50.45;99276.00;5051778;28;45540;-49
2022/07/20 03:44:13;;;;;;;;;30.00;25.33;;;;;27.20;50.53;99270.59;5041940;28;48192;-51
2022/07/20 03:46:38;;;;;;;;;28.00;25.67;;;;;27.19;50.79;99279.72;5041001;28;45349;-48
2022/07/20 03:49:05;;;;;;;;;23.33;23.33;;;;;27.20;50.70;99275.16;5039747;28;45380;-49
2022/07/20 03:51:30;;;;;;;;;26.67;25.67;;;;;27.23;50.63;99277.53;5056665;28;45373;-52
2022/07/20 03:53:56;;;;;;;;;28.00;27.00;;;;;27.23;50.39;99283.78;5030351;28;47243;-50
2022/07/20 03:56:21;;;;;;;;;29.33;25.67;;;;;27.25;50.63;99283.63;5042765;28;45459;-49
2022/07/20 03:58:47;;;;;;;;;28.33;27.33;;;;;27.27;50.58;99287.88;5045581;28;45782;-48
2022/07/20 04:01:13;;;;;;;;;26.33;25.33;;;;;27.26;50.51;99288.03;5049785;28;45320;-51
2022/07/20 04:03:38;;;;;;;;;23.67;23.67;;;;;27.25;50.50;99298.03;5054961;28;45460;-51
2022/07/20 04:06:04;;;;;;;;;28.33;27.00;;;;;27.23;50.40;99301.91;5043037;28;45705;-49
2022/07/20 04:08:30;;;;;;;;;29.67;26.33;;;;;27.24;50.51;99312.56;5037183;28;45427;-52
2022/07/20 04:10:55;;;;;;;;;28.00;24.67;;;;;27.25;50.62;99319.69;5053710;28;45360;-49
2022/07/20 04:13:21;;;;;;;;;26.67;26.00;;;;;27.28;50.68;99318.50;5053124;28;45441;-52
2022/07/20 04:15:46;;;;;;;;;26.00;24.67;;;;;27.30;50.72;99328.16;5057303;28;45439;-48
2022/07/20 04:18:12;;;;;;;;;33.33;29.00;;;;;27.33;50.33;99326.97;5057353;28;45403;-49
2022/07/20 04:20:37;;;;;;;;;32.33;29.33;;;;;27.34;50.56;99336.78;5054170;28;45566;-50
2022/07/20 04:23:03;;;;;;;;;27.67;27.33;;;;;27.33;50.98;99335.09;5053137;28;45514;-47
2022/07/20 04:25:28;;;;;;;;;28.33;25.67;;;;;27.32;50.76;99330.69;5052896;28;45420;-49
2022/07/20 04:27:54;;;;;;;;;29.00;29.00;;;;;27.34;50.47;99334.09;5047126;28;45463;-51
2022/07/20 04:30:19;;;;;;;;;36.33;32.00;;;;;27.36;50.50;99334.78;5056099;28;45447;-49
2022/07/20 04:32:46;;;;;;;;;28.00;27.33;;;;;27.38;50.61;99338.16;5048565;28;46077;-51
2022/07/20 04:35:11;;;;;;;;;30.00;28.67;;;;;27.39;50.55;99340.72;5046766;28;45407;-51
2022/07/20 04:37:37;;;;;;;;;29.67;28.00;;;;;27.42;50.58;99339.53;5047191;28;45404;-49
2022/07/20 04:40:04;;;;;;;;;30.33;28.33;;;;;27.47;50.58;99347.19;5049896;28;45400;-49
2022/07/20 04:42:30;;;;;;;;;28.00;26.67;;;;;27.49;50.62;99334.31;5035731;28;45689;-51
2022/07/20 04:44:56;;;;;;;;;27.33;26.67;;;;;27.51;50.34;99343.97;5055290;28;45622;-50
2022/07/20 04:47:23;;;;;;;;;20.00;19.00;;;;;27.54;50.71;99340.09;5038058;28;45536;-53
2022/07/20 04:49:48;;;;;;;;;35.67;32.33;;;;;27.55;50.75;99348.06;5047565;28;45532;-53
2022/07/20 04:52:14;;;;;;;;;32.00;30.00;;;;;27.57;50.95;99342.50;5050987;28;46320;-49
2022/07/20 04:54:41;;;;;;;;;33.67;32.33;;;;;27.58;50.82;99345.06;5039595;28;45564;-52
2022/07/20 04:57:06;;;;;;;;;30.33;29.33;;;;;27.59;50.85;99344.03;5051887;28;45373;-51
2022/07/20 04:59:32;;;;;;;;;33.33;30.00;;;;;27.63;50.87;99347.28;5055969;28;45551;-48
2022/07/20 05:01:57;;;;;;;;;28.33;28.33;;;;;27.67;50.69;99348.63;5070129;27;45500;-50
2022/07/20 05:04:23;;;;;;;;;28.67;27.33;;;;;27.68;50.88;99343.03;5042718;28;45500;-51
2022/07/20 05:06:48;;;;;;;;;31.00;30.00;;;;;27.71;50.93;99341.88;5037249;28;45497;-51
2022/07/20 05:09:13;;;;;;;;;32.00;30.00;;;;;27.74;50.37;99347.81;5040557;28;45527;-51
2022/07/20 05:11:39;;;;;;;;;34.00;32.33;;;;;27.77;50.75;99349.34;5055662;28;46221;-48
2022/07/20 05:14:04;;;;;;;;;24.67;21.67;;;;;27.81;50.66;99356.13;5056103;28;45653;-49
2022/07/20 05:16:30;;;;;;;;;27.33;25.33;;;;;27.82;50.43;99357.00;5045649;27;45434;-52
2022/07/20 05:18:56;;;;;;;;;29.00;25.33;;;;;27.84;50.75;99353.06;5040250;28;45472;-51
2022/07/20 05:21:21;;;;;;;;;30.00;30.00;;;;;27.87;50.21;99357.31;5048166;28;46527;-47
2022/07/20 05:23:47;;;;;;;;;25.67;25.67;;;;;27.89;50.52;99353.44;5051550;28;45499;-52
2022/07/20 05:26:12;;;;;;;;;27.67;26.67;;;;;27.91;50.49;99348.69;5050976;28;45623;-53
2022/07/20 05:28:42;;;;;;;;;28.33;26.00;;;;;27.95;50.25;99357.34;5044829;28;45481;-52
2022/07/20 05:31:09;;;;;;;;;28.33;26.33;;;;;27.97;50.18;99355.31;5038783;28;47271;-51
2022/07/20 05:33:35;;;;;;;;;27.00;25.33;;;;;28.02;50.18;99358.38;5052786;28;45507;-52
2022/07/20 05:36:02;;;;;;;;;28.67;28.67;;;;;28.03;49.77;99360.91;5050840;28;45469;-53
2022/07/20 05:38:29;;;;;;;;;35.00;32.00;;;;;28.03;50.23;99351.94;5043214;28;45508;-51
2022/07/20 05:40:54;;;;;;;;;36.33;32.00;;;;;28.05;50.13;99358.03;5040606;28;46346;-49
2022/07/20 05:43:20;;;;;;;;;33.00;31.00;;;;;28.06;50.46;99362.44;5048760;28;45504;-52
2022/07/20 05:45:45;;;;;;;;;30.00;29.00;;;;;28.08;50.35;99355.00;5044465;28;45573;-52
2022/07/20 05:48:11;;;;;;;;;36.33;31.67;;;;;28.10;50.08;99356.53;5040141;28;45405;-51
2022/07/20 05:50:37;;;;;;;;;32.33;30.33;;;;;28.12;49.82;99354.50;5054550;28;47422;-49
2022/07/20 05:53:03;;;;;;;;;32.67;29.67;;;;;28.12;50.12;99359.94;5040928;28;45431;-50
2022/07/20 05:55:29;;;;;;;;;32.00;30.00;;;;;28.13;49.80;99360.78;5036575;28;45587;-52
2022/07/20 05:57:55;;;;;;;;;36.67;33.67;;;;;28.14;49.96;99355.19;5053676;28;45536;-50
2022/07/20 06:00:20;;;;;;;;;32.33;29.33;;;;;28.16;49.92;99360.41;5055335;28;45415;-47
2022/07/20 06:02:46;;;;;;;;;35.33;31.00;;;;;28.19;49.71;99368.25;5054972;28;45392;-52
2022/07/20 06:05:11;;;;;;;;;36.67;32.00;;;;;28.19;50.09;99368.25;5055744;28;45552;-50
2022/07/20 06:07:36;;;;;;;;;32.00;29.67;;;;;28.21;49.68;99357.25;5065607;28;45391;-50
2022/07/20 06:10:03;;;;;;;;;34.00;31.33;;;;;28.25;49.91;99364.03;5052611;28;46311;-52
2022/07/20 06:12:28;;;;;;;;;26.67;25.33;;;;;28.28;50.17;99367.25;5041705;28;45623;-50
2022/07/20 06:14:53;;;;;;;;;32.67;29.33;;;;;28.32;49.67;99365.88;5043018;28;45435;-52
2022/07/20 06:17:19;;;;;;;;;31.33;29.33;;;;;28.36;49.34;99359.09;5037936;28;45452;-50
2022/07/20 06:19:44;;;;;;;;;30.33;29.00;;;;;28.41;49.86;99353.19;5040401;28;45491;-49
2022/07/20 06:22:09;;;;;;;;;34.33;31.33;;;;;28.43;49.48;99348.44;5042703;28;45604;-51
2022/07/20 06:24:35;;;;;;;;;32.67;31.33;;;;;28.44;49.24;99345.56;5066270;27;45871;-49
2022/07/20 06:27:00;;;;;;;;;30.33;29.67;;;;;28.49;49.50;99353.16;5040391;28;45443;-52
2022/07/20 06:29:26;;;;;;;;;28.33;27.67;;;;;28.53;48.90;99348.25;5042728;28;46264;-52
2022/07/20 06:31:51;;;;;;;;;32.00;30.00;;;;;28.55;49.12;99348.94;5051910;28;45483;-52
2022/07/20 06:34:17;;;;;;;;;34.33;32.00;;;;;28.58;48.83;99352.16;5052834;28;45399;-53
2022/07/20 06:36:44;;;;;;;;;37.33;33.00;;;;;28.59;49.08;99348.44;5054125;28;45483;-53
2022/07/20 06:39:10;;;;;;;;;33.67;31.67;;;;;28.65;48.75;99358.63;5053362;28;45438;-60
2022/07/20 06:41:35;;;;;;;;;33.67;31.33;;;;;28.70;49.14;99355.38;5053509;28;45525;-52
2022/07/20 06:44:00;;;;;;;;;29.67;26.33;;;;;28.72;48.58;99356.91;5041242;28;45314;-52
2022/07/20 06:46:26;;;;;;;;;34.67;30.00;;;;;28.75;48.55;99359.28;5054459;28;45265;-50
2022/07/20 06:48:51;;;;;;;;;35.00;31.00;;;;;28.76;48.65;99352.81;5054466;28;46212;-53
2022/07/20 06:51:17;;;;;;;;;43.67;35.67;;;;;28.79;48.32;99355.22;5052937;28;45530;-54
2022/07/20 06:53:42;;;;;;;;;34.33;30.67;;;;;28.80;48.88;99350.66;5048617;28;45387;-53
2022/07/20 06:56:09;;;;;;;;;36.00;32.67;;;;;28.81;48.28;99353.19;5042609;28;45447;-49
2022/07/20 06:58:34;;;;;;;;;34.33;29.67;;;;;28.83;48.40;99347.56;5041046;28;46396;-51
2022/07/20 07:01:00;;;;;;;;;29.00;27.67;;;;;28.84;47.97;99349.25;5041203;28;45501;-52
2022/07/20 07:03:25;;;;;;;;;34.33;30.67;;;;;28.85;48.26;99353.69;5038228;28;45380;-54
2022/07/20 07:05:50;;;;;;;;;34.67;30.00;;;;;28.87;48.24;99351.63;5037419;28;45492;-53
2022/07/20 07:08:16;;;;;;;;;38.67;31.67;;;;;28.89;48.68;99346.88;5043335;28;45429;-51
2022/07/20 07:10:41;;;;;;;;;32.00;29.33;;;;;28.93;48.49;99344.69;5047376;28;45477;-53
2022/07/20 07:13:07;;;;;;;;;35.00;31.33;;;;;29.00;48.24;99353.81;5055076;28;45309;-53
2022/07/20 07:15:32;;;;;;;;;35.67;32.33;;;;;29.00;48.31;99353.81;5050945;28;45500;-53
2022/07/20 07:17:58;;;;;;;;;36.33;31.00;;;;;29.00;48.30;99354.66;5053966;28;46153;-51
2022/07/20 07:20:23;;;;;;;;;32.67;31.67;;;;;29.03;48.66;99346.16;5054211;28;45342;-51
2022/07/20 07:22:48;;;;;;;;;32.00;28.00;;;;;29.07;48.35;99336.66;5054391;28;45387;-50
2022/07/20 07:25:14;;;;;;;;;32.00;29.67;;;;;29.13;47.97;99337.84;5054521;28;45481;-53
2022/07/20 07:27:39;;;;;;;;;31.67;29.00;;;;;29.16;48.11;99334.75;5054448;28;46050;-53
2022/07/20 07:30:06;;;;;;;;;34.00;31.67;;;;;29.21;47.84;99340.53;5054476;28;45453;-54
2022/07/20 07:32:31;;;;;;;;;21.33;20.67;;;;;29.25;47.46;99336.44;5054755;28;45475;-52
2022/07/20 07:34:56;;;;;;;;;34.00;30.33;;;;;29.29;47.40;99340.50;5054676;28;45373;-50
2022/07/20 07:37:22;;;;;;;;;36.33;33.00;;;;;29.34;47.42;99329.09;5054114;28;45498;-53
2022/07/20 07:39:47;;;;;;;;;40.33;35.00;;;;;29.39;47.58;99330.28;5053805;27;45417;-52
2022/07/20 07:42:12;;;;;;;;;31.33;28.33;;;;;29.44;47.16;99327.91;5054085;28;45607;-54
2022/07/20 07:44:38;;;;;;;;;33.00;30.33;;;;;29.48;46.68;99323.81;5054278;28;45403;-54
2022/07/20 07:47:03;;;;;;;;;33.67;31.00;;;;;29.49;46.54;99322.75;5054162;27;45742;-54
2022/07/20 07:49:29;;;;;;;;;32.33;29.33;;;;;29.51;47.19;99315.28;5054017;27;45370;-52
2022/07/20 07:51:54;;;;;;;;;34.00;31.00;;;;;29.56;46.81;99320.19;5054290;28;45413;-53
2022/07/20 07:54:19;;;;;;;;;35.33;31.33;;;;;29.62;47.17;99324.09;5052461;28;45683;-54
2022/07/20 07:56:45;;;;;;;;;36.67;32.00;;;;;29.64;46.40;99312.00;5054054;28;45395;-54
2022/07/20 07:59:10;;;;;;;;;28.33;28.33;;;;;29.72;46.32;99316.53;5053744;28;45386;-54
2022/07/20 08:01:36;;;;;;;;;34.67;30.00;;;;;29.76;46.04;99321.44;5054419;28;45340;-51
2022/07/20 08:04:03;;;;;;;;;34.00;29.00;;;;;29.80;45.53;99320.06;5053505;28;45515;-52
2022/07/20 08:06:28;;;;;;;;;29.33;29.00;;;;;29.85;45.61;99316.78;5043388;28;46369;-53
2022/07/20 08:08:57;;;;;;;;;28.67;28.00;;;;;29.89;45.40;99314.56;5033401;28;45314;-54
2022/07/20 08:11:23;;;;;;;;;31.33;30.33;;;;;29.92;45.48;99319.66;5043838;28;45362;-52
2022/07/20 08:13:49;;;;;;;;;38.67;32.00;;;;;29.95;45.51;99317.41;5050983;28;45411;-51
2022/07/20 08:16:14;;;;;;;;;35.67;32.00;;;;;29.98;45.02;99322.53;5050464;28;46466;-54
2022/07/20 08:18:40;;;;;;;;;27.33;27.33;;;;;30.03;44.76;99316.53;5053349;28;45814;-54
2022/07/20 08:21:05;;;;;;;;;34.00;31.00;;;;;30.08;45.26;99306.81;5033851;28;45383;-51
2022/07/20 08:23:31;;;;;;;;;33.00;29.67;;;;;30.11;45.25;99313.78;5040270;28;45491;-52
2022/07/20 08:25:56;;;;;;;;;33.67;29.67;;;;;30.15;45.29;99309.66;5047380;28;45402;-50
2022/07/20 08:28:22;;;;;;;;;33.00;31.00;;;;;30.16;44.83;99311.34;5043732;28;45519;-53
2022/07/20 08:30:49;;;;;;;;;33.33;29.00;;;;;30.17;45.07;99311.16;5048383;28;45454;-53
2022/07/20 08:33:16;;;;;;;;;33.33;29.33;;;;;30.18;44.99;99307.41;5041450;28;45290;-52
2022/07/20 08:35:42;;;;;;;;;32.67;30.67;;;;;30.19;45.23;99311.81;5051073;28;46477;-54
2022/07/20 08:38:08;;;;;;;;;33.00;30.67;;;;;30.16;44.70;99312.19;5042764;28;45432;-51
2022/07/20 08:40:34;;;;;;;;;34.33;32.00;;;;;30.14;44.94;99308.81;5044489;28;45444;-54
2022/07/20 08:42:59;;;;;;;;;32.00;29.00;;;;;30.12;44.75;99315.47;5041646;28;45613;-53
2022/07/20 08:45:25;;;;;;;;;34.67;32.00;;;;;30.11;45.19;99309.19;5044532;28;46294;-51
2022/07/20 08:47:52;;;;;;;;;33.00;30.67;;;;;30.11;44.75;99303.75;5054694;28;45470;-54
2022/07/20 08:50:22;;;;;;;;;32.67;31.00;;;;;30.13;45.07;99300.84;5038971;28;45601;-51
2022/07/20 08:52:47;;;;;;;;;33.33;31.67;;;;;30.18;45.57;99307.41;5043055;28;45408;-53
2022/07/20 08:55:13;;;;;;;;;33.00;30.67;;;;;30.22;45.71;99298.88;5056388;28;45423;-53
2022/07/20 08:57:38;;;;;;;;;37.33;32.00;;;;;30.20;44.76;99304.50;5056229;28;45532;-54
2022/07/20 09:00:05;;;;;;;;;30.33;29.33;;;;;30.23;44.95;99306.03;5050229;28;45428;-53
2022/07/20 09:02:47;;;;;;;;;33.67;31.00;;;;;30.27;44.90;99297.31;5040502;28;45372;-52
2022/07/20 09:05:12;;;;;;;;;26.33;25.00;;;;;30.29;44.87;99299.84;5037580;28;45547;-54
2022/07/20 09:07:43;;;;;;;;;33.67;31.00;;;;;30.32;44.65;99299.50;5037598;28;45469;-53
2022/07/20 09:10:34;;;;;;;;;36.33;32.67;;;;;30.35;44.69;99297.22;5044197;28;45390;-52
2022/07/20 09:13:04;;;;;;;;;35.67;31.67;;;;;30.37;44.40;99295.16;5033590;28;45461;-52
2022/07/20 09:15:38;;;;;;;;;30.67;29.00;;;;;30.38;44.48;99299.59;5052839;28;45481;-53
2022/07/20 09:18:06;;;;;;;;;34.33;31.67;;;;;30.38;44.61;99296.03;5056294;28;45402;-60
2022/07/20 09:20:34;;;;;;;;;26.67;26.33;;;;;30.40;44.71;99296.69;5056417;28;45321;-60
2022/07/20 09:23:04;;;;;;;;;31.33;30.00;;;;;30.42;44.60;99297.34;5056153;28;45505;-60
2022/07/20 09:25:30;;;;;;;;;32.00;30.33;;;;;30.43;44.83;99294.44;5052200;28;45434;-61
2022/07/20 09:27:57;;;;;;;;;36.00;31.33;;;;;30.45;44.04;99289.69;5044614;28;45344;-60
2022/07/20 09:30:23;;;;;;;;;35.00;31.33;;;;;30.48;44.01;99291.19;5040029;28;45408;-61
2022/07/20 09:32:58;;;;;;;;;29.00;27.67;;;;;30.50;44.07;99289.94;5035976;28;45515;-61
2022/07/20 09:35:27;;;;;;;;;28.33;25.33;;;;;30.55;44.11;99273.09;5053973;28;46067;-62
2022/07/20 09:37:55;;;;;;;;;28.00;27.67;;;;;30.61;43.54;99285.13;5041550;28;45388;-60
2022/07/20 09:40:20;;;;;;;;;32.00;29.67;;;;;30.66;43.58;99272.66;5036030;28;45305;-60
2022/07/20 09:42:47;;;;;;;;;33.00;30.33;;;;;30.72;43.18;99277.34;5048680;28;45380;-60
2022/07/20 09:45:27;;;;;;;;;30.33;29.00;;;;;30.81;42.84;99268.06;5044514;28;46743;-59
2022/07/20 09:48:04;;;;;;;;;26.67;26.33;;;;;30.88;42.71;99269.00;5048604;28;45302;-60
2022/07/20 09:50:39;;;;;;;;;28.67;28.67;;;;;30.98;42.42;99263.28;5050626;28;45475;-60
2022/07/20 09:53:07;;;;;;;;;33.67;28.00;;;;;31.12;42.29;99261.59;5047694;28;45456;-60
2022/07/20 09:55:34;;;;;;;;;30.33;29.00;;;;;31.23;41.41;99266.56;5055377;28;46403;-60
2022/07/20 09:58:00;;;;;;;;;33.00;29.00;;;;;31.28;42.07;99255.09;5042253;28;45472;-60
2022/07/20 10:00:27;;;;;;;;;32.33;30.00;;;;;31.36;41.18;99239.47;5047738;28;45608;-61
2022/07/20 10:02:56;;;;;;;;;27.67;27.67;;;;;31.48;41.16;99248.00;5048222;28;45442;-60
2022/07/20 10:05:22;;;;;;;;;35.00;30.00;;;;;31.57;40.75;99244.13;5047186;28;45372;-60
2022/07/20 10:07:49;;;;;;;;;30.67;29.00;;;;;31.68;40.89;99242.78;5042915;28;45400;-61
2022/07/20 10:10:15;;;;;;;;;22.33;22.33;;;;;31.76;40.58;99245.41;5037206;28;45440;-61
2022/07/20 10:12:41;;;;;;;;;31.67;28.00;;;;;31.81;40.40;99230.16;5048800;28;45423;-61
2022/07/20 10:15:21;;;;;;;;;28.33;26.33;;;;;31.91;40.00;99225.22;5055183;28;45525;-60
2022/07/20 10:17:47;;;;;;;;;27.67;26.33;;;;;32.03;39.58;99220.06;5043635;28;45480;-61
2022/07/20 10:20:34;;;;;;;;;30.67;28.33;;;;;32.15;38.99;99223.97;5035543;28;45471;-60
2022/07/20 10:23:14;;;;;;;;;29.00;28.67;;;;;32.23;38.48;99203.88;5052979;28;45494;-60
2022/07/20 10:25:40;;;;;;;;;28.33;27.00;;;;;32.33;38.48;99198.94;5041937;28;45377;-60
2022/07/20 10:28:23;;;;;;;;;21.33;21.33;;;;;32.44;37.49;99201.13;5042672;28;45499;-60
2022/07/20 10:30:54;;;;;;;;;22.33;20.00;;;;;32.53;37.88;99190.84;5055510;28;45440;-60
2022/07/20 10:33:21;;;;;;;;;26.67;25.00;;;;;32.62;36.73;99194.28;5055105;28;45471;-60
2022/07/20 10:35:48;;;;;;;;;23.33;23.00;;;;;32.67;36.95;99189.06;5051414;28;47421;-60
2022/07/20 10:38:19;;;;;;;;;24.67;24.33;;;;;32.72;36.65;99181.94;5047680;28;45390;-53
2022/07/20 10:44:22;;;;;;;;;25.67;23.67;;;;;32.97;35.90;99176.84;5055322;28;45473;-53
2022/07/20 10:46:49;;;;;;;;;24.33;23.33;;;;;33.08;35.66;99168.06;5040305;28;46086;-51
2022/07/20 10:49:15;;;;;;;;;23.33;23.33;;;;;33.18;35.44;99170.44;5046697;28;45376;-52
2022/07/20 10:51:41;;;;;;;;;27.33;25.00;;;;;33.22;34.84;99168.94;5054864;28;45368;-53
2022/07/20 10:54:36;;;;;;;;;22.00;21.67;;;;;33.27;34.02;99153.66;5053813;28;45479;-52
2022/07/20 10:57:02;;;;;;;;;23.00;23.00;;;;;33.30;34.24;99157.88;5035631;28;45468;-52
2022/07/20 10:59:28;;;;;;;;;23.67;23.00;;;;;33.37;34.57;99157.88;5034414;28;45444;-53
2022/07/20 11:01:54;;;;;;;;;28.00;26.33;;;;;33.42;34.43;99156.22;5034809;28;45522;-53
2022/07/20 11:04:21;;;;;;;;;23.33;23.00;;;;;33.44;33.26;99147.81;5034684;28;45419;-53
2022/07/20 11:06:47;;;;;;;;;26.67;25.33;;;;;33.50;33.53;99145.09;5039697;28;46489;-53
2022/07/20 11:09:12;;;;;;;;;21.00;20.00;;;;;33.56;33.87;99140.66;5034114;28;45419;-55
2022/07/20 11:11:38;;;;;;;;;21.33;21.33;;;;;33.63;33.64;99141.53;5045044;28;45384;-53
2022/07/20 11:14:05;;;;;;;;;27.67;24.33;;;;;33.62;33.91;99139.84;5054549;28;45558;-52
2022/07/20 11:16:32;;;;;;;;;23.67;23.67;;;;;33.66;33.91;99154.78;5054503;28;45214;-52
2022/07/20 11:18:59;;;;;;;;;27.67;27.67;;;;;33.68;34.31;99130.81;5054316;28;45440;-53